createdAt,value
2018-06-03T00:00:50.411Z,12.9
2018-06-03T00:02:49.621Z,12.9
2018-06-03T00:04:50.080Z,11.4
2018-06-03T00:06:49.517Z,11.8
2018-06-03T00:08:49.636Z,11.8
2018-06-03T00:10:49.888Z,11.4
2018-06-03T00:12:50.145Z,11.4
2018-06-03T00:14:50.372Z,11.4
2018-06-03T00:16:49.798Z,12.6
2018-06-03T00:18:50.059Z,13.2
2018-06-03T00:20:50.228Z,11.6
2018-06-03T00:22:49.452Z,11.6
2018-06-03T00:24:49.587Z,12.5
2018-06-03T00:26:49.907Z,12.2
2018-06-03T00:28:50.116Z,12.1
2018-06-03T00:30:50.321Z,12.1
2018-06-03T00:32:49.491Z,11.8
2018-06-03T00:34:49.854Z,12.4
2018-06-03T00:36:50.264Z,11.6
2018-06-03T00:38:50.278Z,12.1
2018-06-03T00:40:49.520Z,12.1
2018-06-03T00:42:49.720Z,12.5
2018-06-03T00:44:49.908Z,12.3
2018-06-03T00:46:50.311Z,12.3
2018-06-03T00:48:49.522Z,12.3
2018-06-03T00:50:49.746Z,12.0
2018-06-03T00:52:49.960Z,12.0
2018-06-03T00:54:50.344Z,11.5
2018-06-03T00:56:49.639Z,11.5
2018-06-03T00:58:49.479Z,11.7
2018-06-03T01:00:49.678Z,11.8
2018-06-03T01:02:50.033Z,11.2
2018-06-03T01:04:49.505Z,11.1
2018-06-03T01:06:49.874Z,11.1
2018-06-03T01:08:50.120Z,11.0
2018-06-03T01:10:50.276Z,10.9
2018-06-03T01:12:49.475Z,10.7
2018-06-03T01:14:49.617Z,10.7
2018-06-03T01:16:49.868Z,11.6
2018-06-03T01:18:50.082Z,11.6
2018-06-03T01:20:50.349Z,10.9
2018-06-03T01:22:49.514Z,11.1
2018-06-03T01:24:49.703Z,10.5
2018-06-03T01:26:49.997Z,10.5
2018-06-03T01:28:50.233Z,10.0
2018-06-03T01:30:50.397Z,10.9
2018-06-03T01:32:49.679Z,11.1
2018-06-03T01:34:50.174Z,12.2
2018-06-03T01:36:49.436Z,12.2
2018-06-03T01:38:49.646Z,11.3
2018-06-03T01:40:49.855Z,10.4
2018-06-03T01:42:50.126Z,11.0
2018-06-03T01:44:50.351Z,11.0
2018-06-03T01:46:49.682Z,10.7
2018-06-03T01:48:49.904Z,10.8
2018-06-03T01:50:50.128Z,11.8
2018-06-03T01:52:50.355Z,11.0
2018-06-03T01:54:49.521Z,11.6
2018-06-03T01:56:49.814Z,11.6
2018-06-03T01:58:50.024Z,12.0
2018-06-03T02:00:50.232Z,13.3
2018-06-03T02:02:49.461Z,13.3
2018-06-03T02:04:49.941Z,11.8
2018-06-03T02:06:50.185Z,11.8
2018-06-03T02:08:50.114Z,12.7
2018-06-03T02:10:50.277Z,12.2
2018-06-03T02:12:49.458Z,12.2
2018-06-03T02:14:49.613Z,13.6
2018-06-03T02:16:49.919Z,13.6
2018-06-03T02:18:50.120Z,13.9
2018-06-03T02:20:50.319Z,13.5
2018-06-03T02:22:49.503Z,13.5
2018-06-03T02:24:49.771Z,13.4
2018-06-03T02:26:50.284Z,13.4
2018-06-03T02:28:49.436Z,12.4
2018-06-03T02:30:49.678Z,13.3
2018-06-03T02:32:49.905Z,14.1
2018-06-03T02:34:50.405Z,14.1
2018-06-03T02:36:49.747Z,13.7
2018-06-03T02:38:50.099Z,13.9
2018-06-03T02:40:50.280Z,13.7
2018-06-03T02:42:49.527Z,13.5
2018-06-03T02:44:49.718Z,13.5
2018-06-03T02:46:50.042Z,14.0
2018-06-03T02:48:50.225Z,15.8
2018-06-03T02:50:49.511Z,15.1
2018-06-03T02:52:49.744Z,16.5
2018-06-03T02:54:50.139Z,16.5
2018-06-03T02:56:49.497Z,15.6
2018-06-03T02:58:49.683Z,15.0
2018-06-03T03:00:49.869Z,15.0
2018-06-03T03:02:50.022Z,16.0
2018-06-03T03:04:50.369Z,16.0
2018-06-03T03:06:49.741Z,17.8
2018-06-03T03:08:50.052Z,17.8
2018-06-03T03:10:50.236Z,16.2
2018-06-03T03:12:49.554Z,16.2
2018-06-03T03:14:49.737Z,17.3
2018-06-03T03:16:50.114Z,16.9
2018-06-03T03:18:50.298Z,15.8
2018-06-03T03:20:49.463Z,15.8
2018-06-03T03:22:49.711Z,15.8
2018-06-03T03:24:49.827Z,14.9
2018-06-03T03:26:50.125Z,14.3
2018-06-03T03:28:50.389Z,13.5
2018-06-03T03:30:49.569Z,13.5
2018-06-03T03:32:49.739Z,13.1
2018-06-03T03:34:50.258Z,13.4
2018-06-03T03:36:49.533Z,14.4
2018-06-03T03:38:49.762Z,14.4
2018-06-03T03:40:50.025Z,13.4
2018-06-03T03:42:50.202Z,13.4
2018-06-03T03:44:49.464Z,12.4
2018-06-03T03:46:49.819Z,12.8
2018-06-03T03:48:49.949Z,13.3
2018-06-03T03:50:50.113Z,12.9
2018-06-03T03:52:50.393Z,12.9
2018-06-03T03:54:49.616Z,12.5
2018-06-03T03:56:49.901Z,12.9
2018-06-03T03:58:50.101Z,12.7
2018-06-03T04:00:50.307Z,12.0
2018-06-03T04:02:49.589Z,12.0
2018-06-03T04:04:50.099Z,11.9
2018-06-03T04:06:50.432Z,11.8
2018-06-03T04:08:49.648Z,12.4
2018-06-03T04:10:49.797Z,12.4
2018-06-03T04:12:49.968Z,12.4
2018-06-03T04:14:50.175Z,12.1
2018-06-03T04:16:49.505Z,12.8
2018-06-03T04:18:49.675Z,11.1
2018-06-03T04:20:49.850Z,11.1
2018-06-03T04:22:50.153Z,12.2
2018-06-03T04:24:50.374Z,12.5
2018-06-03T04:26:50.147Z,12.4
2018-06-03T04:28:50.326Z,12.2
2018-06-03T04:30:49.463Z,12.2
2018-06-03T04:32:49.733Z,12.3
2018-06-03T04:34:50.321Z,12.2
2018-06-03T04:36:49.563Z,11.0
2018-06-03T04:38:49.741Z,12.4
2018-06-03T04:40:49.895Z,12.4
2018-06-03T04:42:50.110Z,11.2
2018-06-03T04:44:50.308Z,11.8
2018-06-03T04:46:49.689Z,11.8
2018-06-03T04:48:49.978Z,11.7
2018-06-03T04:50:49.675Z,11.7
2018-06-03T04:52:49.894Z,12.0
2018-06-03T04:54:50.116Z,12.2
2018-06-03T04:56:50.426Z,10.7
2018-06-03T04:58:49.622Z,11.3
2018-06-03T05:00:49.794Z,11.3
2018-06-03T05:02:49.962Z,11.3
2018-06-03T05:04:50.351Z,11.4
2018-06-03T05:06:49.682Z,10.5
2018-06-03T05:08:49.845Z,10.5
2018-06-03T05:10:50.028Z,10.5
2018-06-03T05:12:50.318Z,10.6
2018-06-03T05:14:49.491Z,11.1
2018-06-03T05:16:49.761Z,11.4
2018-06-03T05:18:49.956Z,11.4
2018-06-03T05:20:50.170Z,11.3
2018-06-03T05:22:50.280Z,11.2
2018-06-03T05:24:50.384Z,10.5
2018-06-03T05:26:49.662Z,10.8
2018-06-03T05:28:49.881Z,10.8
2018-06-03T05:30:50.112Z,10.4
2018-06-03T05:32:50.295Z,10.6
2018-06-03T05:34:49.837Z,10.6
2018-06-03T05:36:49.739Z,10.7
2018-06-03T05:38:50.022Z,10.7
2018-06-03T05:40:50.220Z,10.8
2018-06-03T05:42:49.493Z,11.7
2018-06-03T05:44:49.680Z,11.7
2018-06-03T05:46:49.996Z,11.7
2018-06-03T05:48:50.160Z,10.4
2018-06-03T05:50:50.329Z,10.0
2018-06-03T05:52:49.456Z,9.8
2018-06-03T05:54:49.662Z,9.7
2018-06-03T05:56:50.027Z,9.2
2018-06-03T05:58:50.244Z,9.2
2018-06-03T06:00:50.390Z,9.7
2018-06-03T06:02:49.585Z,9.6
2018-06-03T06:04:49.978Z,9.3
2018-06-03T06:06:50.315Z,8.9
2018-06-03T06:08:49.464Z,8.9
2018-06-03T06:10:49.718Z,8.9
2018-06-03T06:12:49.839Z,8.6
2018-06-03T06:14:50.030Z,8.6
2018-06-03T06:16:50.274Z,8.6
2018-06-03T06:18:49.458Z,8.8
2018-06-03T06:20:49.694Z,8.7
2018-06-03T06:22:49.989Z,8.7
2018-06-03T06:24:50.197Z,7.8
2018-06-03T06:26:49.492Z,7.8
2018-06-03T06:28:49.619Z,8.0
2018-06-03T06:30:49.743Z,8.0
2018-06-03T06:32:49.862Z,8.3
2018-06-03T06:34:50.321Z,8.2
2018-06-03T06:36:50.284Z,8.2
2018-06-03T06:38:49.541Z,8.5
2018-06-03T06:40:49.738Z,7.8
2018-06-03T06:42:49.479Z,8.3
2018-06-03T06:44:49.625Z,7.8
2018-06-03T06:46:49.886Z,7.8
2018-06-03T06:48:50.101Z,8.3
2018-06-03T06:50:50.359Z,8.3
2018-06-03T06:52:49.554Z,7.7
2018-06-03T06:54:49.746Z,7.7
2018-06-03T06:56:49.979Z,7.8
2018-06-03T06:58:50.235Z,11.3
2018-06-03T07:00:50.464Z,8.4
2018-06-03T07:02:49.672Z,7.4
2018-06-03T07:04:50.234Z,7.4
2018-06-03T07:06:49.562Z,7.8
2018-06-03T07:08:50.102Z,7.5
2018-06-03T07:10:50.277Z,7.6
2018-06-03T07:12:50.414Z,7.8
2018-06-03T07:14:49.620Z,7.8
2018-06-03T07:16:50.000Z,8.1
2018-06-03T07:18:50.179Z,7.2
2018-06-03T07:20:50.344Z,8.1
2018-06-03T07:22:49.536Z,7.3
2018-06-03T07:24:49.675Z,7.3
2018-06-03T07:26:49.969Z,7.6
2018-06-03T07:28:50.213Z,7.5
2018-06-03T07:30:50.348Z,7.5
2018-06-03T07:32:49.548Z,7.4
2018-06-03T07:34:49.938Z,7.3
2018-06-03T07:36:50.259Z,7.9
2018-06-03T07:38:50.430Z,7.7
2018-06-03T07:40:49.688Z,7.7
2018-06-03T07:42:49.957Z,7.6
2018-06-03T07:44:50.132Z,7.5
2018-06-03T07:46:49.634Z,8.0
2018-06-03T07:48:49.869Z,7.4
2018-06-03T07:50:50.032Z,7.4
2018-06-03T07:52:50.188Z,7.6
2018-06-03T07:54:50.340Z,7.8
2018-06-03T07:56:49.650Z,7.1
2018-06-03T07:58:49.880Z,7.8
2018-06-03T08:00:50.046Z,7.7
2018-06-03T08:02:50.283Z,7.7
2018-06-03T08:04:49.830Z,7.4
2018-06-03T08:06:50.105Z,6.8
2018-06-03T08:08:50.290Z,6.8
2018-06-03T08:10:49.486Z,7.6
2018-06-03T08:12:49.662Z,7.6
2018-06-03T08:14:49.875Z,7.5
2018-06-03T08:16:50.230Z,7.3
2018-06-03T08:18:50.414Z,7.2
2018-06-03T08:20:49.571Z,7.2
2018-06-03T08:22:49.844Z,7.3
2018-06-03T08:24:49.694Z,7.0
2018-06-03T08:26:49.915Z,7.0
2018-06-03T08:28:50.142Z,6.9
2018-06-03T08:30:50.341Z,6.8
2018-06-03T08:32:49.570Z,6.8
2018-06-03T08:34:49.939Z,6.8
2018-06-03T08:36:50.313Z,6.5
2018-06-03T08:38:49.496Z,6.4
2018-06-03T08:40:49.639Z,6.4
2018-06-03T08:42:49.796Z,6.3
2018-06-03T08:44:50.042Z,5.9
2018-06-03T08:46:50.418Z,5.9
2018-06-03T08:48:49.762Z,5.5
2018-06-03T08:50:49.996Z,5.5
2018-06-03T08:52:50.170Z,6.0
2018-06-03T08:54:50.339Z,5.5
2018-06-03T08:56:49.684Z,5.7
2018-06-03T08:58:49.885Z,5.3
2018-06-03T09:00:50.100Z,5.3
2018-06-03T09:02:50.379Z,5.8
2018-06-03T09:04:49.805Z,6.1
2018-06-03T09:06:50.098Z,6.1
2018-06-03T09:08:49.536Z,5.8
2018-06-03T09:10:49.748Z,5.7
2018-06-03T09:12:49.943Z,6.0
2018-06-03T09:14:50.095Z,5.5
2018-06-03T09:16:49.487Z,6.3
2018-06-03T09:18:49.651Z,5.7
2018-06-03T09:20:50.224Z,5.7
2018-06-03T09:22:49.490Z,5.6
2018-06-03T09:24:49.683Z,6.0
2018-06-03T09:26:50.029Z,6.1
2018-06-03T09:28:50.237Z,6.1
2018-06-03T09:30:50.390Z,6.1
2018-06-03T09:32:49.522Z,5.0
2018-06-03T09:34:49.850Z,4.9
2018-06-03T09:36:50.123Z,4.3
2018-06-03T09:38:50.343Z,4.3
2018-06-03T09:40:49.645Z,4.6
2018-06-03T09:42:49.873Z,4.2
2018-06-03T09:44:50.070Z,4.2
2018-06-03T09:46:50.386Z,5.6
2018-06-03T09:48:49.544Z,5.6
2018-06-03T09:50:49.714Z,5.0
2018-06-03T09:52:49.863Z,5.1
2018-06-03T09:54:50.067Z,5.1
2018-06-03T09:56:50.425Z,4.5
2018-06-03T09:58:49.633Z,5.1
2018-06-03T10:00:49.895Z,4.3
2018-06-03T10:02:50.069Z,4.3
2018-06-03T10:04:49.592Z,4.3
2018-06-03T10:06:49.850Z,4.5
2018-06-03T10:08:50.021Z,4.7
2018-06-03T10:10:50.218Z,3.9
2018-06-03T10:12:49.445Z,3.9
2018-06-03T10:14:49.554Z,4.2
2018-06-03T10:16:49.816Z,3.9
2018-06-03T10:18:49.995Z,3.7
2018-06-03T10:20:50.149Z,3.8
2018-06-03T10:22:50.292Z,3.9
2018-06-03T10:24:50.431Z,3.9
2018-06-03T10:26:49.606Z,3.9
2018-06-03T10:28:49.808Z,3.9
2018-06-03T10:30:50.015Z,4.1
2018-06-03T10:32:50.177Z,4.1
2018-06-03T10:34:49.796Z,4.1
2018-06-03T10:36:50.008Z,4.1
2018-06-03T10:38:50.205Z,3.7
2018-06-03T10:40:50.377Z,3.7
2018-06-03T10:42:49.504Z,3.7
2018-06-03T10:44:49.646Z,5.6
2018-06-03T10:46:49.845Z,5.6
2018-06-03T10:48:50.015Z,4.1
2018-06-03T10:50:50.215Z,3.6
2018-06-03T10:52:50.372Z,3.7
2018-06-03T10:54:49.501Z,3.7
2018-06-03T10:56:49.828Z,3.9
2018-06-03T10:58:50.014Z,3.8
2018-06-03T11:00:50.130Z,3.9
2018-06-03T11:02:50.284Z,4.1
2018-06-03T11:04:49.672Z,4.1
2018-06-03T11:06:49.994Z,3.7
2018-06-03T11:08:50.221Z,3.7
2018-06-03T11:10:50.383Z,3.1
2018-06-03T11:12:49.525Z,3.3
2018-06-03T11:14:49.681Z,3.3
2018-06-03T11:16:50.017Z,3.4
2018-06-03T11:18:50.233Z,3.4
2018-06-03T11:20:50.403Z,2.9
2018-06-03T11:22:49.542Z,4.0
2018-06-03T11:24:49.645Z,4.0
2018-06-03T11:26:49.956Z,3.4
2018-06-03T11:28:50.168Z,2.9
2018-06-03T11:30:50.297Z,3.1
2018-06-03T11:32:49.550Z,3.2
2018-06-03T11:34:49.943Z,3.2
2018-06-03T11:36:50.215Z,3.4
2018-06-03T11:38:50.408Z,3.2
2018-06-03T11:40:49.591Z,3.2
2018-06-03T11:42:49.759Z,3.2
2018-06-03T11:44:49.891Z,3.2
2018-06-03T11:46:50.208Z,3.6
2018-06-03T11:48:50.337Z,3.1
2018-06-03T11:50:49.525Z,3.1
2018-06-03T11:52:49.766Z,3.1
2018-06-03T11:54:49.987Z,3.1
2018-06-03T11:56:50.386Z,3.1
2018-06-03T11:58:49.504Z,3.8
2018-06-03T12:00:49.673Z,3.5
2018-06-03T12:02:49.856Z,3.5
2018-06-03T12:04:50.194Z,3.5
2018-06-03T12:06:49.504Z,3.4
2018-06-03T12:08:49.702Z,4.2
2018-06-03T12:10:49.891Z,3.2
2018-06-03T12:12:50.019Z,3.2
2018-06-03T12:14:50.216Z,3.4
2018-06-03T12:16:49.529Z,3.2
2018-06-03T12:18:49.682Z,3.3
2018-06-03T12:20:49.856Z,3.3
2018-06-03T12:22:50.021Z,3.5
2018-06-03T12:24:50.251Z,3.1
2018-06-03T12:26:49.555Z,3.1
2018-06-03T12:28:49.760Z,3.8
2018-06-03T12:30:49.942Z,3.8
2018-06-03T12:32:50.116Z,3.2
2018-06-03T12:34:49.507Z,3.1
2018-06-03T12:36:49.886Z,2.8
2018-06-03T12:38:50.021Z,3.1
2018-06-03T12:40:50.201Z,3.1
2018-06-03T12:42:50.428Z,2.8
2018-06-03T12:44:49.656Z,3.2
2018-06-03T12:46:49.946Z,3.2
2018-06-03T12:48:50.113Z,3.0
2018-06-03T12:50:50.286Z,3.0
2018-06-03T12:52:50.403Z,2.8
2018-06-03T12:54:49.545Z,2.8
2018-06-03T12:56:49.906Z,2.8
2018-06-03T12:58:50.084Z,2.6
2018-06-03T13:00:50.237Z,2.6
2018-06-03T13:02:50.460Z,2.5
2018-06-03T13:04:49.800Z,2.9
2018-06-03T13:06:50.043Z,2.8
2018-06-03T13:08:50.239Z,2.7
2018-06-03T13:10:50.438Z,2.7
2018-06-03T13:12:49.569Z,2.9
2018-06-03T13:14:49.718Z,2.8
2018-06-03T13:16:50.011Z,2.8
2018-06-03T13:18:50.249Z,3.1
2018-06-03T13:20:49.648Z,3.1
2018-06-03T13:22:49.789Z,3.2
2018-06-03T13:24:49.909Z,2.9
2018-06-03T13:26:50.201Z,2.7
2018-06-03T13:28:50.395Z,2.7
2018-06-03T13:30:49.536Z,3.0
2018-06-03T13:32:49.679Z,2.7
2018-06-03T13:34:50.221Z,3.3
2018-06-03T13:36:49.459Z,3.2
2018-06-03T13:38:49.577Z,3.2
2018-06-03T13:40:49.789Z,2.9
2018-06-03T13:42:49.934Z,3.0
2018-06-03T13:44:50.134Z,2.5
2018-06-03T13:46:50.371Z,2.5
2018-06-03T13:48:49.500Z,2.8
2018-06-03T13:50:49.633Z,2.8
2018-06-03T13:52:49.820Z,2.8
2018-06-03T13:54:49.938Z,2.7
2018-06-03T13:56:50.215Z,2.7
2018-06-03T13:58:50.357Z,2.9
2018-06-03T14:00:49.596Z,2.9
2018-06-03T14:02:49.749Z,3.1
2018-06-03T14:04:50.119Z,2.8
2018-06-03T14:06:50.387Z,2.8
2018-06-03T14:08:49.546Z,3.1
2018-06-03T14:10:49.662Z,3.0
2018-06-03T14:12:49.826Z,2.8
2018-06-03T14:14:50.013Z,2.9
2018-06-03T14:16:50.256Z,2.9
2018-06-03T14:18:49.445Z,2.7
2018-06-03T14:20:49.682Z,2.7
2018-06-03T14:22:49.822Z,2.8
2018-06-03T14:24:50.019Z,2.6
2018-06-03T14:26:50.348Z,2.6
2018-06-03T14:28:49.521Z,2.8
2018-06-03T14:30:49.708Z,2.9
2018-06-03T14:32:49.902Z,2.6
2018-06-03T14:34:50.370Z,2.6
2018-06-03T14:36:49.615Z,2.6
2018-06-03T14:38:49.779Z,2.8
2018-06-03T14:40:49.892Z,2.7
2018-06-03T14:42:50.138Z,2.7
2018-06-03T14:44:50.297Z,2.6
2018-06-03T14:46:49.645Z,2.6
2018-06-03T14:48:49.830Z,2.6
2018-06-03T14:50:50.056Z,2.4
2018-06-03T14:52:50.247Z,2.6
2018-06-03T14:54:50.365Z,2.8
2018-06-03T14:56:49.638Z,2.8
2018-06-03T14:58:49.708Z,2.6
2018-06-03T15:00:49.868Z,2.9
2018-06-03T15:02:50.101Z,2.7
2018-06-03T15:04:49.448Z,2.7
2018-06-03T15:06:49.697Z,2.7
2018-06-03T15:08:49.815Z,2.8
2018-06-03T15:10:50.143Z,2.9
2018-06-03T15:12:49.424Z,3.0
2018-06-03T15:14:49.553Z,3.0
2018-06-03T15:16:49.835Z,5.3
2018-06-03T15:18:49.976Z,2.9
2018-06-03T15:20:50.187Z,2.8
2018-06-03T15:22:50.402Z,3.4
2018-06-03T15:24:49.590Z,3.4
2018-06-03T15:26:49.889Z,3.0
2018-06-03T15:28:50.059Z,2.8
2018-06-03T15:30:50.253Z,2.7
2018-06-03T15:32:49.449Z,2.7
2018-06-03T15:34:49.892Z,2.7
2018-06-03T15:36:50.208Z,3.0
2018-06-03T15:38:50.436Z,2.6
2018-06-03T15:40:49.588Z,2.6
2018-06-03T15:42:49.734Z,2.6
2018-06-03T15:44:49.948Z,3.0
2018-06-03T15:46:50.205Z,2.9
2018-06-03T15:48:50.367Z,2.9
2018-06-03T15:50:49.485Z,2.9
2018-06-03T15:52:49.659Z,2.8
2018-06-03T15:54:49.797Z,3.6
2018-06-03T15:56:50.038Z,2.6
2018-06-03T15:58:50.235Z,2.8
2018-06-03T16:00:50.372Z,2.9
2018-06-03T16:02:49.699Z,2.9
2018-06-03T16:04:50.093Z,2.8
2018-06-03T16:06:50.467Z,2.8
2018-06-03T16:08:49.636Z,3.1
2018-06-03T16:10:49.789Z,3.9
2018-06-03T16:12:50.074Z,3.9
2018-06-03T16:14:50.168Z,2.7
2018-06-03T16:16:49.603Z,3.0
2018-06-03T16:18:49.728Z,2.9
2018-06-03T16:20:49.865Z,4.4
2018-06-03T16:22:49.974Z,4.4
2018-06-03T16:24:50.053Z,3.2
2018-06-03T16:26:50.310Z,3.3
2018-06-03T16:28:49.471Z,2.9
2018-06-03T16:30:49.669Z,2.9
2018-06-03T16:32:49.823Z,3.0
2018-06-03T16:34:50.195Z,2.9
2018-06-03T16:36:50.496Z,3.1
2018-06-03T16:38:49.653Z,3.1
2018-06-03T16:40:49.814Z,3.1
2018-06-03T16:42:49.949Z,2.9
2018-06-03T16:44:50.114Z,3.0
2018-06-03T16:46:49.535Z,2.9
2018-06-03T16:48:49.664Z,2.9
2018-06-03T16:50:49.828Z,2.9
2018-06-03T16:52:49.980Z,3.1
2018-06-03T16:54:50.104Z,3.0
2018-06-03T16:56:50.390Z,2.9
2018-06-03T16:58:49.526Z,2.9
2018-06-03T17:00:49.670Z,2.9
2018-06-03T17:02:49.864Z,2.9
2018-06-03T17:04:50.162Z,2.9
2018-06-03T17:06:50.440Z,2.6
2018-06-03T17:08:49.600Z,3.0
2018-06-03T17:10:49.733Z,3.0
2018-06-03T17:12:49.928Z,2.9
2018-06-03T17:14:50.081Z,3.4
2018-06-03T17:16:49.793Z,3.5
2018-06-03T17:18:49.927Z,3.2
2018-06-03T17:20:50.031Z,3.2
2018-06-03T17:22:50.169Z,3.2
2018-06-03T17:24:50.342Z,3.4
2018-06-03T17:26:49.538Z,2.8
2018-06-03T17:28:49.706Z,3.5
2018-06-03T17:30:49.901Z,3.5
2018-06-03T17:32:50.048Z,3.6
2018-06-03T17:34:49.546Z,3.9
2018-06-03T17:36:49.775Z,3.6
2018-06-03T17:38:49.988Z,3.5
2018-06-03T17:40:50.181Z,3.5
2018-06-03T17:42:50.353Z,3.4
2018-06-03T17:44:49.583Z,3.7
2018-06-03T17:46:49.742Z,3.4
2018-06-03T17:48:49.972Z,3.5
2018-06-03T17:50:50.114Z,3.5
2018-06-03T17:52:50.227Z,3.5
2018-06-03T17:54:50.421Z,3.4
2018-06-03T17:56:49.935Z,3.4
2018-06-03T17:58:50.094Z,3.7
2018-06-03T18:00:50.263Z,4.9
2018-06-03T18:02:49.464Z,3.9
2018-06-03T18:04:49.822Z,3.6
2018-06-03T18:06:50.077Z,3.5
2018-06-03T18:08:50.218Z,3.5
2018-06-03T18:10:50.421Z,3.9
2018-06-03T18:12:49.667Z,3.6
2018-06-03T18:14:49.891Z,3.6
2018-06-03T18:16:50.179Z,4.2
2018-06-03T18:18:49.584Z,3.5
2018-06-03T18:20:49.757Z,3.8
2018-06-03T18:22:49.961Z,3.9
2018-06-03T18:24:50.121Z,4.0
2018-06-03T18:26:50.273Z,4.0
2018-06-03T18:28:49.543Z,4.4
2018-06-03T18:30:49.671Z,4.2
2018-06-03T18:32:49.811Z,4.1
2018-06-03T18:34:50.242Z,4.1
2018-06-03T18:36:49.542Z,3.9
2018-06-03T18:38:49.668Z,4.2
2018-06-03T18:40:49.840Z,4.0
2018-06-03T18:42:50.050Z,8.7
2018-06-03T18:44:50.224Z,4.3
2018-06-03T18:46:49.542Z,4.3
2018-06-03T18:48:49.793Z,11.4
2018-06-03T18:50:49.919Z,9.2
2018-06-03T18:52:50.132Z,5.4
2018-06-03T18:54:50.283Z,4.6
2018-06-03T18:56:49.644Z,4.6
2018-06-03T18:58:49.822Z,4.2
2018-06-03T19:00:50.004Z,3.8
2018-06-03T19:02:50.317Z,3.8
2018-06-03T19:04:49.651Z,4.7
2018-06-03T19:06:49.858Z,4.7
2018-06-03T19:08:50.056Z,4.9
2018-06-03T19:10:50.199Z,5.7
2018-06-03T19:12:50.379Z,4.7
2018-06-03T19:14:49.504Z,4.7
2018-06-03T19:16:49.699Z,4.6
2018-06-03T19:18:49.930Z,4.6
2018-06-03T19:20:50.038Z,4.7
2018-06-03T19:22:50.127Z,4.5
2018-06-03T19:24:50.238Z,4.5
2018-06-03T19:26:50.475Z,5.8
2018-06-03T19:28:49.612Z,4.8
2018-06-03T19:30:49.781Z,5.7
2018-06-03T19:32:49.929Z,7.0
2018-06-03T19:34:50.413Z,7.0
2018-06-03T19:36:49.626Z,6.0
2018-06-03T19:38:49.899Z,7.0
2018-06-03T19:40:50.155Z,5.2
2018-06-03T19:42:49.863Z,5.2
2018-06-03T19:44:50.030Z,5.5
2018-06-03T19:46:50.322Z,5.1
2018-06-03T19:48:49.475Z,6.3
2018-06-03T19:50:49.616Z,6.2
2018-06-03T19:52:49.808Z,6.5
2018-06-03T19:54:49.927Z,6.5
2018-06-03T19:56:50.271Z,6.2
2018-06-03T19:58:50.425Z,5.7
2018-06-03T20:00:49.566Z,5.5
2018-06-03T20:02:49.677Z,5.5
2018-06-03T20:04:50.070Z,6.1
2018-06-03T20:06:50.263Z,5.6
2018-06-03T20:08:50.427Z,6.1
2018-06-03T20:10:49.567Z,6.5
2018-06-03T20:12:50.155Z,6.5
2018-06-03T20:14:50.297Z,6.0
2018-06-03T20:16:49.518Z,7.2
2018-06-03T20:18:49.907Z,6.4
2018-06-03T20:20:50.044Z,6.4
2018-06-03T20:22:50.159Z,6.4
2018-06-03T20:24:50.334Z,7.5
2018-06-03T20:26:49.541Z,5.6
2018-06-03T20:28:49.681Z,5.9
2018-06-03T20:30:49.857Z,6.5
2018-06-03T20:32:50.027Z,6.5
2018-06-03T20:34:49.606Z,6.2
2018-06-03T20:36:50.042Z,6.3
2018-06-03T20:38:50.254Z,9.8
2018-06-03T20:40:49.478Z,7.0
2018-06-03T20:42:49.729Z,7.0
2018-06-03T20:44:49.536Z,6.7
2018-06-03T20:46:49.812Z,7.4
2018-06-03T20:48:49.966Z,7.4
2018-06-03T20:50:50.066Z,6.1
2018-06-03T20:52:50.275Z,6.1
2018-06-03T20:54:49.461Z,5.9
2018-06-03T20:56:49.660Z,6.1
2018-06-03T20:58:49.859Z,5.8
2018-06-03T21:00:50.056Z,5.8
2018-06-03T21:02:50.304Z,5.5
2018-06-03T21:04:49.603Z,5.4
2018-06-03T21:06:49.797Z,5.3
2018-06-03T21:08:49.962Z,5.3
2018-06-03T21:10:50.098Z,5.3
2018-06-03T21:12:50.282Z,5.6
2018-06-03T21:14:49.510Z,5.8
2018-06-03T21:16:49.767Z,5.4
2018-06-03T21:18:49.935Z,5.4
2018-06-03T21:20:50.111Z,5.4
2018-06-03T21:22:50.232Z,6.3
2018-06-03T21:24:49.537Z,5.7
2018-06-03T21:26:49.792Z,5.4
2018-06-03T21:28:49.930Z,5.4
2018-06-03T21:30:50.079Z,5.9
2018-06-03T21:32:50.243Z,5.7
2018-06-03T21:34:49.799Z,5.5
2018-06-03T21:36:49.986Z,5.5
2018-06-03T21:38:50.186Z,5.9
2018-06-03T21:40:50.367Z,5.9
2018-06-03T21:42:49.504Z,6.0
2018-06-03T21:44:49.635Z,6.3
2018-06-03T21:46:49.879Z,6.7
2018-06-03T21:48:50.032Z,6.6
2018-06-03T21:50:50.146Z,6.6
2018-06-03T21:52:50.329Z,6.1
2018-06-03T21:54:49.540Z,5.7
2018-06-03T21:56:49.714Z,5.7
2018-06-03T21:58:49.843Z,6.2
2018-06-03T22:00:50.040Z,6.4
2018-06-03T22:02:50.224Z,6.3
2018-06-03T22:04:49.525Z,7.2
2018-06-03T22:06:49.735Z,6.5
2018-06-03T22:08:49.841Z,6.5
2018-06-03T22:10:50.018Z,6.6
2018-06-03T22:12:50.180Z,6.6
2018-06-03T22:14:50.277Z,6.6
2018-06-03T22:16:49.465Z,6.9
2018-06-03T22:18:49.656Z,6.8
2018-06-03T22:20:49.852Z,7.1
2018-06-03T22:22:50.025Z,7.0
2018-06-03T22:24:50.191Z,7.0
2018-06-03T22:26:49.463Z,6.7
2018-06-03T22:28:49.624Z,6.7
2018-06-03T22:30:49.799Z,6.6
2018-06-03T22:32:49.917Z,7.1
2018-06-03T22:34:50.363Z,6.6
2018-06-03T22:36:49.610Z,6.6
2018-06-03T22:38:49.770Z,6.9
2018-06-03T22:40:49.901Z,6.8
2018-06-03T22:42:50.088Z,6.8
2018-06-03T22:44:50.193Z,6.8
2018-06-03T22:46:49.474Z,7.0
2018-06-03T22:48:49.630Z,7.0
2018-06-03T22:50:49.771Z,7.0
2018-06-03T22:52:49.971Z,6.8
2018-06-03T22:54:50.212Z,7.5
2018-06-03T22:56:49.489Z,7.5
2018-06-03T22:58:50.239Z,7.4
2018-06-03T23:00:50.337Z,7.0
2018-06-03T23:02:49.698Z,7.5
2018-06-03T23:04:50.002Z,7.0
2018-06-03T23:06:50.205Z,7.0
2018-06-03T23:08:50.373Z,7.3
2018-06-03T23:10:49.507Z,7.0
2018-06-03T23:12:49.736Z,7.5
2018-06-03T23:14:49.935Z,7.1
2018-06-03T23:16:50.122Z,7.1
2018-06-03T23:18:50.306Z,7.0
2018-06-03T23:20:49.493Z,7.6
2018-06-03T23:22:49.612Z,7.7
2018-06-03T23:24:49.776Z,7.6
2018-06-03T23:26:49.970Z,7.6
2018-06-03T23:28:50.126Z,7.3
2018-06-03T23:30:50.283Z,7.9
2018-06-03T23:32:49.574Z,7.5
2018-06-03T23:34:49.949Z,7.5
2018-06-03T23:36:50.128Z,7.4
2018-06-03T23:38:50.263Z,7.4
2018-06-03T23:40:50.387Z,7.5
2018-06-03T23:42:49.566Z,8.2
2018-06-03T23:44:49.696Z,8.2
2018-06-03T23:46:49.948Z,8.4
2018-06-03T23:48:50.084Z,8.3
2018-06-03T23:50:50.254Z,8.1
2018-06-03T23:52:50.431Z,8.3
2018-06-03T23:54:49.652Z,8.3
2018-06-03T23:56:49.909Z,8.3
2018-06-03T23:58:50.090Z,8.5
